Terminal Aerodrome Forecast
Issued by NWS Wakefield, VA

Home | Current Version | Previous Version | Text Only | Print | Product List | Glossary On
Versions: 1 2 3 4 5 6 7 8 9 10 11 12 13
967
FTUS41 KAKQ 281139
TAFSBY
TAF
KSBY 281139Z 2812/2912 05003KT 5SM BR SCT010
     FM281300 07009KT P6SM SCT025
     FM281600 06008KT P6SM SCT040=

USA.gov is the U.S. government's official web portal to all federal, state and local government web resources and services.